sensor_id;sensor_type;location;lat;lon;timestamp;P1;durP1;ratioP1;P2;durP2;ratioP2
1479;SDS011;732;51.698;4.886;2022-11-23T00:01:32;14.67;;;7.57;;
1479;SDS011;732;51.698;4.886;2022-11-23T00:04:03;18.63;;;7.80;;
1479;SDS011;732;51.698;4.886;2022-11-23T00:06:34;14.83;;;6.83;;
1479;SDS011;732;51.698;4.886;2022-11-23T00:09:03;13.03;;;6.73;;
1479;SDS011;732;51.698;4.886;2022-11-23T00:11:34;10.60;;;6.67;;
1479;SDS011;732;51.698;4.886;2022-11-23T00:14:03;11.30;;;6.73;;
1479;SDS011;732;51.698;4.886;2022-11-23T00:16:31;15.00;;;7.03;;
1479;SDS011;732;51.698;4.886;2022-11-23T00:19:17;19.87;;;7.33;;
1479;SDS011;732;51.698;4.886;2022-11-23T00:21:45;13.23;;;6.50;;
1479;SDS011;732;51.698;4.886;2022-11-23T00:24:14;11.50;;;6.30;;
1479;SDS011;732;51.698;4.886;2022-11-23T00:26:43;9.10;;;5.40;;
1479;SDS011;732;51.698;4.886;2022-11-23T00:29:12;9.83;;;7.00;;
1479;SDS011;732;51.698;4.886;2022-11-23T00:31:41;18.17;;;5.47;;
1479;SDS011;732;51.698;4.886;2022-11-23T00:34:09;13.43;;;5.90;;
1479;SDS011;732;51.698;4.886;2022-11-23T00:36:38;9.57;;;5.30;;
1479;SDS011;732;51.698;4.886;2022-11-23T00:39:06;11.83;;;5.73;;
1479;SDS011;732;51.698;4.886;2022-11-23T00:41:35;12.30;;;6.30;;
1479;SDS011;732;51.698;4.886;2022-11-23T00:44:05;17.63;;;6.70;;
1479;SDS011;732;51.698;4.886;2022-11-23T00:46:34;16.63;;;7.60;;
1479;SDS011;732;51.698;4.886;2022-11-23T00:49:03;13.53;;;6.83;;
1479;SDS011;732;51.698;4.886;2022-11-23T00:51:32;14.50;;;7.33;;
1479;SDS011;732;51.698;4.886;2022-11-23T00:54:03;14.70;;;7.30;;
1479;SDS011;732;51.698;4.886;2022-11-23T00:56:33;13.53;;;7.63;;
1479;SDS011;732;51.698;4.886;2022-11-23T00:59:03;12.00;;;6.70;;
1479;SDS011;732;51.698;4.886;2022-11-23T01:01:33;13.27;;;6.30;;
1479;SDS011;732;51.698;4.886;2022-11-23T01:04:05;13.10;;;6.17;;
1479;SDS011;732;51.698;4.886;2022-11-23T01:06:35;10.67;;;5.47;;
1479;SDS011;732;51.698;4.886;2022-11-23T01:09:07;8.37;;;5.43;;
1479;SDS011;732;51.698;4.886;2022-11-23T01:11:39;10.93;;;5.73;;
1479;SDS011;732;51.698;4.886;2022-11-23T01:14:10;16.97;;;5.83;;
1479;SDS011;732;51.698;4.886;2022-11-23T01:16:39;15.47;;;6.17;;
1479;SDS011;732;51.698;4.886;2022-11-23T01:19:10;10.47;;;5.33;;
1479;SDS011;732;51.698;4.886;2022-11-23T01:21:41;10.90;;;4.60;;
1479;SDS011;732;51.698;4.886;2022-11-23T01:24:11;15.00;;;5.73;;
1479;SDS011;732;51.698;4.886;2022-11-23T01:26:42;9.93;;;5.60;;
1479;SDS011;732;51.698;4.886;2022-11-23T01:29:12;10.97;;;5.10;;
1479;SDS011;732;51.698;4.886;2022-11-23T01:31:41;13.57;;;4.60;;
1479;SDS011;732;51.698;4.886;2022-11-23T01:34:15;9.40;;;4.70;;
1479;SDS011;732;51.698;4.886;2022-11-23T01:36:44;12.10;;;4.97;;
1479;SDS011;732;51.698;4.886;2022-11-23T01:39:13;11.70;;;5.00;;
1479;SDS011;732;51.698;4.886;2022-11-23T01:41:42;10.40;;;4.17;;
1479;SDS011;732;51.698;4.886;2022-11-23T01:47:04;16.73;;;6.87;;
1479;SDS011;732;51.698;4.886;2022-11-23T01:49:36;14.67;;;6.47;;
1479;SDS011;732;51.698;4.886;2022-11-23T01:52:09;14.23;;;7.57;;
1479;SDS011;732;51.698;4.886;2022-11-23T01:54:42;12.50;;;6.90;;
1479;SDS011;732;51.698;4.886;2022-11-23T01:57:16;12.50;;;6.67;;
1479;SDS011;732;51.698;4.886;2022-11-23T01:59:49;14.63;;;7.37;;
1479;SDS011;732;51.698;4.886;2022-11-23T02:02:19;15.60;;;5.90;;
1479;SDS011;732;51.698;4.886;2022-11-23T02:04:51;11.77;;;7.37;;
1479;SDS011;732;51.698;4.886;2022-11-23T02:07:21;12.90;;;6.77;;
1479;SDS011;732;51.698;4.886;2022-11-23T02:09:51;18.87;;;7.47;;
1479;SDS011;732;51.698;4.886;2022-11-23T02:12:20;12.70;;;6.87;;
1479;SDS011;732;51.698;4.886;2022-11-23T02:14:50;13.20;;;6.67;;
1479;SDS011;732;51.698;4.886;2022-11-23T02:17:18;14.17;;;7.40;;
1479;SDS011;732;51.698;4.886;2022-11-23T02:19:49;15.93;;;6.10;;
1479;SDS011;732;51.698;4.886;2022-11-23T02:22:31;13.07;;;6.73;;
1479;SDS011;732;51.698;4.886;2022-11-23T02:25:10;13.00;;;6.97;;
1479;SDS011;732;51.698;4.886;2022-11-23T02:27:47;12.67;;;6.93;;
1479;SDS011;732;51.698;4.886;2022-11-23T02:30:17;13.57;;;7.40;;
1479;SDS011;732;51.698;4.886;2022-11-23T02:32:46;17.03;;;7.30;;
1479;SDS011;732;51.698;4.886;2022-11-23T02:35:16;18.70;;;7.90;;
1479;SDS011;732;51.698;4.886;2022-11-23T02:37:44;16.07;;;7.30;;
1479;SDS011;732;51.698;4.886;2022-11-23T02:40:16;13.97;;;7.13;;
1479;SDS011;732;51.698;4.886;2022-11-23T02:42:54;13.27;;;7.03;;
1479;SDS011;732;51.698;4.886;2022-11-23T02:45:27;14.17;;;6.93;;
1479;SDS011;732;51.698;4.886;2022-11-23T02:48:03;11.57;;;7.00;;
1479;SDS011;732;51.698;4.886;2022-11-23T02:50:49;15.53;;;6.63;;
1479;SDS011;732;51.698;4.886;2022-11-23T02:53:18;14.97;;;6.33;;
1479;SDS011;732;51.698;4.886;2022-11-23T02:55:47;12.93;;;6.33;;
1479;SDS011;732;51.698;4.886;2022-11-23T02:58:17;16.40;;;6.67;;
1479;SDS011;732;51.698;4.886;2022-11-23T03:00:46;13.33;;;6.60;;
1479;SDS011;732;51.698;4.886;2022-11-23T03:03:18;14.70;;;6.20;;
1479;SDS011;732;51.698;4.886;2022-11-23T03:05:46;11.60;;;6.20;;
1479;SDS011;732;51.698;4.886;2022-11-23T03:08:15;12.53;;;6.83;;
1479;SDS011;732;51.698;4.886;2022-11-23T03:10:44;13.17;;;5.87;;
1479;SDS011;732;51.698;4.886;2022-11-23T03:13:13;19.67;;;9.43;;
1479;SDS011;732;51.698;4.886;2022-11-23T03:15:43;16.53;;;7.00;;
1479;SDS011;732;51.698;4.886;2022-11-23T03:18:11;14.00;;;7.17;;
1479;SDS011;732;51.698;4.886;2022-11-23T03:20:40;14.53;;;6.80;;
1479;SDS011;732;51.698;4.886;2022-11-23T03:23:08;13.93;;;6.53;;
1479;SDS011;732;51.698;4.886;2022-11-23T03:25:38;12.03;;;6.33;;
1479;SDS011;732;51.698;4.886;2022-11-23T03:28:07;14.40;;;6.30;;
1479;SDS011;732;51.698;4.886;2022-11-23T03:30:35;13.27;;;6.13;;
1479;SDS011;732;51.698;4.886;2022-11-23T03:33:06;11.10;;;5.50;;
1479;SDS011;732;51.698;4.886;2022-11-23T03:35:35;11.80;;;7.00;;
1479;SDS011;732;51.698;4.886;2022-11-23T03:38:19;15.07;;;5.90;;
1479;SDS011;732;51.698;4.886;2022-11-23T03:40:47;12.93;;;6.53;;
1479;SDS011;732;51.698;4.886;2022-11-23T03:43:22;13.93;;;5.70;;
1479;SDS011;732;51.698;4.886;2022-11-23T03:45:50;22.73;;;6.33;;
1479;SDS011;732;51.698;4.886;2022-11-23T03:48:20;18.10;;;5.77;;
1479;SDS011;732;51.698;4.886;2022-11-23T03:50:49;11.47;;;6.00;;
1479;SDS011;732;51.698;4.886;2022-11-23T03:53:17;8.67;;;5.43;;
1479;SDS011;732;51.698;4.886;2022-11-23T03:55:46;13.80;;;5.80;;
1479;SDS011;732;51.698;4.886;2022-11-23T03:58:14;17.50;;;6.50;;
1479;SDS011;732;51.698;4.886;2022-11-23T04:00:43;11.67;;;6.00;;
1479;SDS011;732;51.698;4.886;2022-11-23T04:03:13;13.30;;;6.60;;
1479;SDS011;732;51.698;4.886;2022-11-23T04:06:02;9.47;;;5.50;;
1479;SDS011;732;51.698;4.886;2022-11-23T04:08:54;11.90;;;4.87;;
1479;SDS011;732;51.698;4.886;2022-11-23T04:11:46;15.33;;;5.30;;
1479;SDS011;732;51.698;4.886;2022-11-23T04:14:14;7.40;;;3.90;;
1479;SDS011;732;51.698;4.886;2022-11-23T04:16:43;10.30;;;4.47;;
1479;SDS011;732;51.698;4.886;2022-11-23T04:19:12;9.67;;;3.57;;
1479;SDS011;732;51.698;4.886;2022-11-23T04:21:42;7.70;;;3.43;;
1479;SDS011;732;51.698;4.886;2022-11-23T04:24:12;8.10;;;3.50;;
1479;SDS011;732;51.698;4.886;2022-11-23T04:26:41;6.30;;;3.40;;
1479;SDS011;732;51.698;4.886;2022-11-23T04:29:10;9.50;;;3.80;;
1479;SDS011;732;51.698;4.886;2022-11-23T04:31:43;7.80;;;3.60;;
1479;SDS011;732;51.698;4.886;2022-11-23T04:34:15;17.10;;;3.67;;
1479;SDS011;732;51.698;4.886;2022-11-23T04:36:45;11.07;;;4.20;;
1479;SDS011;732;51.698;4.886;2022-11-23T04:39:14;12.67;;;4.50;;
1479;SDS011;732;51.698;4.886;2022-11-23T04:41:56;8.87;;;4.47;;
1479;SDS011;732;51.698;4.886;2022-11-23T04:44:25;8.07;;;4.60;;
1479;SDS011;732;51.698;4.886;2022-11-23T04:46:59;13.77;;;5.63;;
1479;SDS011;732;51.698;4.886;2022-11-23T04:49:28;11.30;;;5.60;;
1479;SDS011;732;51.698;4.886;2022-11-23T04:51:59;16.23;;;6.07;;
1479;SDS011;732;51.698;4.886;2022-11-23T04:54:33;11.50;;;6.27;;
1479;SDS011;732;51.698;4.886;2022-11-23T04:57:06;14.40;;;5.53;;
1479;SDS011;732;51.698;4.886;2022-11-23T04:59:36;12.83;;;6.40;;
1479;SDS011;732;51.698;4.886;2022-11-23T05:02:05;12.67;;;5.73;;
1479;SDS011;732;51.698;4.886;2022-11-23T05:04:46;8.90;;;5.10;;
1479;SDS011;732;51.698;4.886;2022-11-23T05:07:17;14.23;;;5.10;;
1479;SDS011;732;51.698;4.886;2022-11-23T05:09:52;13.17;;;5.00;;
1479;SDS011;732;51.698;4.886;2022-11-23T05:12:21;11.23;;;4.50;;
1479;SDS011;732;51.698;4.886;2022-11-23T05:14:50;11.00;;;4.73;;
1479;SDS011;732;51.698;4.886;2022-11-23T05:17:23;10.70;;;5.63;;
1479;SDS011;732;51.698;4.886;2022-11-23T05:19:53;10.97;;;4.23;;
1479;SDS011;732;51.698;4.886;2022-11-23T05:22:24;9.40;;;3.80;;
1479;SDS011;732;51.698;4.886;2022-11-23T05:24:53;9.43;;;5.30;;
1479;SDS011;732;51.698;4.886;2022-11-23T05:27:24;13.47;;;4.40;;
1479;SDS011;732;51.698;4.886;2022-11-23T05:29:53;5.90;;;2.67;;
1479;SDS011;732;51.698;4.886;2022-11-23T05:32:21;9.80;;;2.73;;
1479;SDS011;732;51.698;4.886;2022-11-23T05:34:51;10.37;;;1.60;;
1479;SDS011;732;51.698;4.886;2022-11-23T05:37:21;6.63;;;3.00;;
1479;SDS011;732;51.698;4.886;2022-11-23T05:39:57;6.93;;;2.10;;
1479;SDS011;732;51.698;4.886;2022-11-23T05:42:25;6.53;;;2.00;;
1479;SDS011;732;51.698;4.886;2022-11-23T05:44:58;10.90;;;1.73;;
1479;SDS011;732;51.698;4.886;2022-11-23T05:47:36;10.30;;;1.93;;
1479;SDS011;732;51.698;4.886;2022-11-23T05:50:08;5.60;;;1.60;;
1479;SDS011;732;51.698;4.886;2022-11-23T05:52:42;6.17;;;2.10;;
1479;SDS011;732;51.698;4.886;2022-11-23T05:55:10;12.33;;;2.33;;
1479;SDS011;732;51.698;4.886;2022-11-23T05:57:38;5.00;;;1.47;;
1479;SDS011;732;51.698;4.886;2022-11-23T06:00:07;9.00;;;2.20;;
1479;SDS011;732;51.698;4.886;2022-11-23T06:02:44;5.03;;;1.70;;
1479;SDS011;732;51.698;4.886;2022-11-23T06:05:13;5.13;;;1.53;;
1479;SDS011;732;51.698;4.886;2022-11-23T06:07:49;7.63;;;1.70;;
1479;SDS011;732;51.698;4.886;2022-11-23T06:10:24;4.83;;;1.90;;
1479;SDS011;732;51.698;4.886;2022-11-23T06:13:00;6.00;;;2.13;;
1479;SDS011;732;51.698;4.886;2022-11-23T06:15:31;3.03;;;1.60;;
1479;SDS011;732;51.698;4.886;2022-11-23T06:18:01;6.20;;;1.40;;
1479;SDS011;732;51.698;4.886;2022-11-23T06:20:38;10.27;;;2.20;;
1479;SDS011;732;51.698;4.886;2022-11-23T06:23:08;4.23;;;1.43;;
1479;SDS011;732;51.698;4.886;2022-11-23T06:25:36;12.10;;;2.30;;
1479;SDS011;732;51.698;4.886;2022-11-23T06:28:12;14.43;;;2.03;;
1479;SDS011;732;51.698;4.886;2022-11-23T06:30:44;9.47;;;1.80;;
1479;SDS011;732;51.698;4.886;2022-11-23T06:33:13;6.20;;;1.93;;
1479;SDS011;732;51.698;4.886;2022-11-23T06:35:50;12.80;;;1.93;;
1479;SDS011;732;51.698;4.886;2022-11-23T06:38:23;11.63;;;4.20;;
1479;SDS011;732;51.698;4.886;2022-11-23T06:40:59;9.73;;;2.10;;
1479;SDS011;732;51.698;4.886;2022-11-23T06:43:29;6.37;;;1.87;;
1479;SDS011;732;51.698;4.886;2022-11-23T06:46:01;5.47;;;3.07;;
1479;SDS011;732;51.698;4.886;2022-11-23T06:48:35;4.10;;;1.30;;
1479;SDS011;732;51.698;4.886;2022-11-23T06:51:04;6.27;;;1.60;;
1479;SDS011;732;51.698;4.886;2022-11-23T06:53:36;10.70;;;2.13;;
1479;SDS011;732;51.698;4.886;2022-11-23T06:56:07;7.50;;;1.77;;
1479;SDS011;732;51.698;4.886;2022-11-23T06:58:36;5.40;;;1.40;;
1479;SDS011;732;51.698;4.886;2022-11-23T07:01:09;10.27;;;1.77;;
1479;SDS011;732;51.698;4.886;2022-11-23T07:03:44;6.67;;;1.63;;
1479;SDS011;732;51.698;4.886;2022-11-23T07:06:24;6.43;;;2.00;;
1479;SDS011;732;51.698;4.886;2022-11-23T07:08:57;4.00;;;1.90;;
1479;SDS011;732;51.698;4.886;2022-11-23T07:11:52;8.03;;;1.73;;
1479;SDS011;732;51.698;4.886;2022-11-23T07:14:20;6.60;;;2.03;;
1479;SDS011;732;51.698;4.886;2022-11-23T07:16:50;6.83;;;2.00;;
1479;SDS011;732;51.698;4.886;2022-11-23T07:19:18;11.67;;;2.07;;
1479;SDS011;732;51.698;4.886;2022-11-23T07:21:49;9.47;;;2.30;;
1479;SDS011;732;51.698;4.886;2022-11-23T07:24:19;12.57;;;3.00;;
1479;SDS011;732;51.698;4.886;2022-11-23T07:26:47;7.37;;;1.97;;
1479;SDS011;732;51.698;4.886;2022-11-23T07:29:17;5.67;;;1.80;;
1479;SDS011;732;51.698;4.886;2022-11-23T07:31:46;7.57;;;1.73;;
1479;SDS011;732;51.698;4.886;2022-11-23T07:34:15;9.27;;;2.00;;
1479;SDS011;732;51.698;4.886;2022-11-23T07:36:43;6.13;;;1.83;;
1479;SDS011;732;51.698;4.886;2022-11-23T07:39:12;11.77;;;2.57;;
1479;SDS011;732;51.698;4.886;2022-11-23T07:41:42;5.07;;;1.80;;
1479;SDS011;732;51.698;4.886;2022-11-23T07:44:19;5.20;;;1.90;;
1479;SDS011;732;51.698;4.886;2022-11-23T07:46:51;7.47;;;1.50;;
1479;SDS011;732;51.698;4.886;2022-11-23T07:49:20;6.73;;;1.63;;
1479;SDS011;732;51.698;4.886;2022-11-23T07:51:48;5.90;;;1.60;;
1479;SDS011;732;51.698;4.886;2022-11-23T07:54:18;6.30;;;1.60;;
1479;SDS011;732;51.698;4.886;2022-11-23T07:56:50;5.53;;;2.27;;
1479;SDS011;732;51.698;4.886;2022-11-23T07:59:18;7.00;;;2.50;;
1479;SDS011;732;51.698;4.886;2022-11-23T08:01:47;7.10;;;1.80;;
1479;SDS011;732;51.698;4.886;2022-11-23T08:04:22;9.40;;;1.83;;
1479;SDS011;732;51.698;4.886;2022-11-23T08:06:52;4.97;;;2.20;;
1479;SDS011;732;51.698;4.886;2022-11-23T08:09:20;9.73;;;2.07;;
1479;SDS011;732;51.698;4.886;2022-11-23T08:11:51;5.90;;;1.90;;
1479;SDS011;732;51.698;4.886;2022-11-23T08:14:19;9.93;;;1.93;;
1479;SDS011;732;51.698;4.886;2022-11-23T08:16:49;7.57;;;2.17;;
1479;SDS011;732;51.698;4.886;2022-11-23T08:19:17;7.07;;;1.60;;
1479;SDS011;732;51.698;4.886;2022-11-23T08:21:46;4.87;;;1.87;;
1479;SDS011;732;51.698;4.886;2022-11-23T08:24:14;9.43;;;2.27;;
1479;SDS011;732;51.698;4.886;2022-11-23T08:26:43;9.20;;;2.30;;
1479;SDS011;732;51.698;4.886;2022-11-23T08:29:13;9.03;;;3.33;;
1479;SDS011;732;51.698;4.886;2022-11-23T08:31:41;6.63;;;1.70;;
1479;SDS011;732;51.698;4.886;2022-11-23T08:34:10;9.83;;;2.77;;
1479;SDS011;732;51.698;4.886;2022-11-23T08:36:39;8.10;;;2.23;;
1479;SDS011;732;51.698;4.886;2022-11-23T08:39:08;7.63;;;2.40;;
1479;SDS011;732;51.698;4.886;2022-11-23T08:41:39;6.10;;;2.10;;
1479;SDS011;732;51.698;4.886;2022-11-23T08:44:08;4.57;;;1.97;;
1479;SDS011;732;51.698;4.886;2022-11-23T08:46:39;9.40;;;3.03;;
1479;SDS011;732;51.698;4.886;2022-11-23T08:49:07;8.10;;;2.13;;
1479;SDS011;732;51.698;4.886;2022-11-23T08:51:36;8.30;;;2.50;;
1479;SDS011;732;51.698;4.886;2022-11-23T08:54:04;3.37;;;1.70;;
1479;SDS011;732;51.698;4.886;2022-11-23T08:56:32;8.53;;;2.43;;
1479;SDS011;732;51.698;4.886;2022-11-23T08:59:01;7.97;;;1.80;;
1479;SDS011;732;51.698;4.886;2022-11-23T09:01:29;5.50;;;2.27;;
1479;SDS011;732;51.698;4.886;2022-11-23T09:03:59;7.10;;;2.20;;
1479;SDS011;732;51.698;4.886;2022-11-23T09:06:31;5.73;;;2.30;;
1479;SDS011;732;51.698;4.886;2022-11-23T09:09:00;7.23;;;2.23;;
1479;SDS011;732;51.698;4.886;2022-11-23T09:11:28;10.70;;;3.07;;
1479;SDS011;732;51.698;4.886;2022-11-23T09:13:57;9.37;;;2.80;;
1479;SDS011;732;51.698;4.886;2022-11-23T09:16:25;8.57;;;2.20;;
1479;SDS011;732;51.698;4.886;2022-11-23T09:19:00;5.00;;;2.10;;
1479;SDS011;732;51.698;4.886;2022-11-23T09:21:29;7.60;;;2.00;;
1479;SDS011;732;51.698;4.886;2022-11-23T09:23:59;7.60;;;1.80;;
1479;SDS011;732;51.698;4.886;2022-11-23T09:26:28;7.57;;;2.67;;
1479;SDS011;732;51.698;4.886;2022-11-23T09:28:59;5.43;;;1.73;;
1479;SDS011;732;51.698;4.886;2022-11-23T09:31:27;8.20;;;3.63;;
1479;SDS011;732;51.698;4.886;2022-11-23T09:33:55;5.50;;;2.37;;
1479;SDS011;732;51.698;4.886;2022-11-23T09:36:25;9.73;;;2.43;;
1479;SDS011;732;51.698;4.886;2022-11-23T09:38:54;10.17;;;2.37;;
1479;SDS011;732;51.698;4.886;2022-11-23T09:41:31;6.40;;;1.70;;
1479;SDS011;732;51.698;4.886;2022-11-23T09:44:40;9.13;;;2.60;;
1479;SDS011;732;51.698;4.886;2022-11-23T09:47:35;9.90;;;2.37;;
1479;SDS011;732;51.698;4.886;2022-11-23T09:50:32;7.70;;;1.93;;
1479;SDS011;732;51.698;4.886;2022-11-23T09:53:14;5.27;;;2.30;;
1479;SDS011;732;51.698;4.886;2022-11-23T09:55:47;6.00;;;2.20;;
1479;SDS011;732;51.698;4.886;2022-11-23T09:58:18;8.83;;;2.27;;
1479;SDS011;732;51.698;4.886;2022-11-23T10:00:49;4.10;;;1.93;;
1479;SDS011;732;51.698;4.886;2022-11-23T10:03:26;12.43;;;3.23;;
1479;SDS011;732;51.698;4.886;2022-11-23T10:05:58;8.17;;;3.50;;
1479;SDS011;732;51.698;4.886;2022-11-23T10:08:37;4.73;;;2.40;;
1479;SDS011;732;51.698;4.886;2022-11-23T10:11:21;5.97;;;2.57;;
1479;SDS011;732;51.698;4.886;2022-11-23T10:14:07;8.73;;;2.77;;
1479;SDS011;732;51.698;4.886;2022-11-23T10:16:52;7.47;;;2.93;;
1479;SDS011;732;51.698;4.886;2022-11-23T10:19:30;7.90;;;2.90;;
1479;SDS011;732;51.698;4.886;2022-11-23T10:22:14;9.60;;;2.70;;
1479;SDS011;732;51.698;4.886;2022-11-23T10:24:50;4.00;;;2.33;;
1479;SDS011;732;51.698;4.886;2022-11-23T10:27:21;8.70;;;2.73;;
1479;SDS011;732;51.698;4.886;2022-11-23T10:29:50;8.87;;;2.90;;
1479;SDS011;732;51.698;4.886;2022-11-23T10:32:25;9.27;;;3.00;;
1479;SDS011;732;51.698;4.886;2022-11-23T10:34:59;6.07;;;2.37;;
1479;SDS011;732;51.698;4.886;2022-11-23T10:37:35;7.60;;;2.60;;
1479;SDS011;732;51.698;4.886;2022-11-23T10:40:11;17.70;;;2.87;;
1479;SDS011;732;51.698;4.886;2022-11-23T10:42:45;7.63;;;3.00;;
1479;SDS011;732;51.698;4.886;2022-11-23T10:45:19;8.87;;;2.27;;
1479;SDS011;732;51.698;4.886;2022-11-23T10:47:49;4.03;;;2.13;;
1479;SDS011;732;51.698;4.886;2022-11-23T10:50:22;10.20;;;2.60;;
1479;SDS011;732;51.698;4.886;2022-11-23T10:52:55;4.07;;;2.40;;
1479;SDS011;732;51.698;4.886;2022-11-23T10:55:28;5.37;;;2.63;;
1479;SDS011;732;51.698;4.886;2022-11-23T10:57:59;3.90;;;2.23;;
1479;SDS011;732;51.698;4.886;2022-11-23T11:00:28;8.20;;;2.47;;
1479;SDS011;732;51.698;4.886;2022-11-23T11:02:57;4.47;;;2.10;;
1479;SDS011;732;51.698;4.886;2022-11-23T11:05:30;8.73;;;2.40;;
1479;SDS011;732;51.698;4.886;2022-11-23T11:08:20;3.70;;;1.97;;
1479;SDS011;732;51.698;4.886;2022-11-23T11:11:00;3.57;;;2.13;;
1479;SDS011;732;51.698;4.886;2022-11-23T11:13:31;3.57;;;2.40;;
1479;SDS011;732;51.698;4.886;2022-11-23T11:16:17;8.50;;;2.30;;
1479;SDS011;732;51.698;4.886;2022-11-23T11:18:48;5.40;;;2.40;;
1479;SDS011;732;51.698;4.886;2022-11-23T11:21:18;7.10;;;2.47;;
1479;SDS011;732;51.698;4.886;2022-11-23T11:23:50;5.10;;;2.07;;
1479;SDS011;732;51.698;4.886;2022-11-23T11:26:24;4.60;;;1.80;;
1479;SDS011;732;51.698;4.886;2022-11-23T11:28:56;7.53;;;1.90;;
1479;SDS011;732;51.698;4.886;2022-11-23T11:31:38;6.50;;;1.90;;
1479;SDS011;732;51.698;4.886;2022-11-23T11:34:21;4.47;;;1.90;;
1479;SDS011;732;51.698;4.886;2022-11-23T11:36:56;4.00;;;1.80;;
1479;SDS011;732;51.698;4.886;2022-11-23T11:39:31;2.50;;;1.27;;
1479;SDS011;732;51.698;4.886;2022-11-23T11:42:10;5.77;;;1.50;;
1479;SDS011;732;51.698;4.886;2022-11-23T11:44:44;7.03;;;1.47;;
1479;SDS011;732;51.698;4.886;2022-11-23T11:47:22;5.30;;;1.60;;
1479;SDS011;732;51.698;4.886;2022-11-23T11:49:57;2.57;;;1.50;;
1479;SDS011;732;51.698;4.886;2022-11-23T11:52:29;3.43;;;1.70;;
1479;SDS011;732;51.698;4.886;2022-11-23T11:55:04;4.13;;;1.90;;
1479;SDS011;732;51.698;4.886;2022-11-23T11:57:44;6.57;;;1.60;;
1479;SDS011;732;51.698;4.886;2022-11-23T12:00:17;7.07;;;1.47;;
1479;SDS011;732;51.698;4.886;2022-11-23T12:02:51;2.50;;;1.37;;
1479;SDS011;732;51.698;4.886;2022-11-23T12:05:32;4.43;;;1.23;;
1479;SDS011;732;51.698;4.886;2022-11-23T12:08:10;6.70;;;1.43;;
1479;SDS011;732;51.698;4.886;2022-11-23T12:10:45;6.43;;;1.13;;
1479;SDS011;732;51.698;4.886;2022-11-23T12:13:20;2.80;;;1.50;;
1479;SDS011;732;51.698;4.886;2022-11-23T12:15:52;2.23;;;1.17;;
1479;SDS011;732;51.698;4.886;2022-11-23T12:18:34;3.83;;;1.40;;
1479;SDS011;732;51.698;4.886;2022-11-23T12:21:22;2.87;;;1.60;;
1479;SDS011;732;51.698;4.886;2022-11-23T12:24:10;5.07;;;1.97;;
1479;SDS011;732;51.698;4.886;2022-11-23T12:26:48;1.90;;;1.30;;
1479;SDS011;732;51.698;4.886;2022-11-23T12:29:28;3.47;;;1.40;;
1479;SDS011;732;51.698;4.886;2022-11-23T12:32:18;6.20;;;1.57;;
1479;SDS011;732;51.698;4.886;2022-11-23T12:35:10;4.80;;;1.30;;
1479;SDS011;732;51.698;4.886;2022-11-23T12:37:56;5.60;;;1.33;;
1479;SDS011;732;51.698;4.886;2022-11-23T12:40:40;3.10;;;1.27;;
1479;SDS011;732;51.698;4.886;2022-11-23T12:43:25;2.60;;;1.20;;
1479;SDS011;732;51.698;4.886;2022-11-23T12:46:05;3.90;;;1.40;;
1479;SDS011;732;51.698;4.886;2022-11-23T12:48:45;3.77;;;1.33;;
1479;SDS011;732;51.698;4.886;2022-11-23T12:51:30;9.43;;;1.50;;
1479;SDS011;732;51.698;4.886;2022-11-23T12:54:11;3.00;;;1.67;;
1479;SDS011;732;51.698;4.886;2022-11-23T12:57:14;3.20;;;1.20;;
1479;SDS011;732;51.698;4.886;2022-11-23T12:59:50;3.80;;;1.17;;
1479;SDS011;732;51.698;4.886;2022-11-23T13:05:52;3.57;;;1.30;;
1479;SDS011;732;51.698;4.886;2022-11-23T13:08:54;2.60;;;1.20;;
1479;SDS011;732;51.698;4.886;2022-11-23T13:11:55;4.63;;;1.20;;
1479;SDS011;732;51.698;4.886;2022-11-23T13:14:38;4.20;;;1.27;;
1479;SDS011;732;51.698;4.886;2022-11-23T13:17:21;4.80;;;1.43;;
1479;SDS011;732;51.698;4.886;2022-11-23T13:20:14;6.07;;;2.47;;
1479;SDS011;732;51.698;4.886;2022-11-23T13:23:06;1.73;;;1.20;;
1479;SDS011;732;51.698;4.886;2022-11-23T13:25:35;2.30;;;1.40;;
1479;SDS011;732;51.698;4.886;2022-11-23T13:28:04;3.90;;;1.17;;
1479;SDS011;732;51.698;4.886;2022-11-23T13:31:16;2.20;;;1.00;;
1479;SDS011;732;51.698;4.886;2022-11-23T13:33:52;2.93;;;1.53;;
1479;SDS011;732;51.698;4.886;2022-11-23T13:36:41;2.90;;;1.30;;
1479;SDS011;732;51.698;4.886;2022-11-23T13:42:30;4.07;;;2.13;;
1479;SDS011;732;51.698;4.886;2022-11-23T13:45:21;4.30;;;1.43;;
1479;SDS011;732;51.698;4.886;2022-11-23T13:51:05;7.77;;;3.10;;
1479;SDS011;732;51.698;4.886;2022-11-23T13:53:36;4.53;;;1.40;;
1479;SDS011;732;51.698;4.886;2022-11-23T13:56:15;5.70;;;1.57;;
1479;SDS011;732;51.698;4.886;2022-11-23T13:58:53;7.20;;;4.53;;
1479;SDS011;732;51.698;4.886;2022-11-23T14:04:53;3.20;;;1.30;;
1479;SDS011;732;51.698;4.886;2022-11-23T14:08:18;3.17;;;1.50;;
1479;SDS011;732;51.698;4.886;2022-11-23T14:10:47;7.17;;;2.17;;
1479;SDS011;732;51.698;4.886;2022-11-23T14:13:18;3.33;;;1.40;;
1479;SDS011;732;51.698;4.886;2022-11-23T14:15:53;4.60;;;1.47;;
1479;SDS011;732;51.698;4.886;2022-11-23T14:18:41;2.27;;;1.30;;
1479;SDS011;732;51.698;4.886;2022-11-23T14:21:31;2.97;;;1.33;;
1479;SDS011;732;51.698;4.886;2022-11-23T14:24:28;4.63;;;1.33;;
1479;SDS011;732;51.698;4.886;2022-11-23T14:33:15;4.87;;;1.57;;
1479;SDS011;732;51.698;4.886;2022-11-23T14:35:56;1.57;;;1.17;;
1479;SDS011;732;51.698;4.886;2022-11-23T14:42:00;7.43;;;1.97;;
1479;SDS011;732;51.698;4.886;2022-11-23T14:44:35;7.43;;;1.77;;
1479;SDS011;732;51.698;4.886;2022-11-23T14:47:08;2.37;;;1.33;;
1479;SDS011;732;51.698;4.886;2022-11-23T14:49:47;2.70;;;1.40;;
1479;SDS011;732;51.698;4.886;2022-11-23T14:52:17;3.20;;;1.70;;
1479;SDS011;732;51.698;4.886;2022-11-23T14:54:50;2.30;;;1.43;;
1479;SDS011;732;51.698;4.886;2022-11-23T14:57:23;5.50;;;1.70;;
1479;SDS011;732;51.698;4.886;2022-11-23T14:59:54;2.60;;;1.47;;
1479;SDS011;732;51.698;4.886;2022-11-23T15:02:28;3.60;;;1.90;;
1479;SDS011;732;51.698;4.886;2022-11-23T15:05:03;7.47;;;1.97;;
1479;SDS011;732;51.698;4.886;2022-11-23T15:07:43;4.03;;;2.77;;
1479;SDS011;732;51.698;4.886;2022-11-23T15:10:26;4.80;;;1.90;;
1479;SDS011;732;51.698;4.886;2022-11-23T15:13:14;3.60;;;2.30;;
1479;SDS011;732;51.698;4.886;2022-11-23T15:15:47;2.63;;;1.60;;
1479;SDS011;732;51.698;4.886;2022-11-23T15:18:26;2.67;;;1.70;;
1479;SDS011;732;51.698;4.886;2022-11-23T15:20:57;2.97;;;2.10;;
1479;SDS011;732;51.698;4.886;2022-11-23T15:23:32;4.70;;;2.60;;
1479;SDS011;732;51.698;4.886;2022-11-23T15:26:04;5.70;;;2.70;;
1479;SDS011;732;51.698;4.886;2022-11-23T15:29:00;4.63;;;1.90;;
1479;SDS011;732;51.698;4.886;2022-11-23T15:31:29;5.00;;;2.53;;
1479;SDS011;732;51.698;4.886;2022-11-23T15:34:02;7.00;;;5.07;;
1479;SDS011;732;51.698;4.886;2022-11-23T15:36:36;9.43;;;4.87;;
1479;SDS011;732;51.698;4.886;2022-11-23T15:39:06;4.03;;;2.27;;
1479;SDS011;732;51.698;4.886;2022-11-23T15:41:44;6.10;;;3.60;;
1479;SDS011;732;51.698;4.886;2022-11-23T15:44:14;5.33;;;2.73;;
1479;SDS011;732;51.698;4.886;2022-11-23T15:46:44;5.80;;;2.93;;
1479;SDS011;732;51.698;4.886;2022-11-23T15:49:15;5.20;;;3.10;;
1479;SDS011;732;51.698;4.886;2022-11-23T15:51:46;6.87;;;3.00;;
1479;SDS011;732;51.698;4.886;2022-11-23T15:54:19;6.80;;;3.10;;
1479;SDS011;732;51.698;4.886;2022-11-23T15:56:52;5.97;;;3.43;;
1479;SDS011;732;51.698;4.886;2022-11-23T15:59:29;5.60;;;4.10;;
1479;SDS011;732;51.698;4.886;2022-11-23T16:02:03;4.47;;;3.07;;
1479;SDS011;732;51.698;4.886;2022-11-23T16:04:34;8.30;;;3.93;;
1479;SDS011;732;51.698;4.886;2022-11-23T16:07:13;5.60;;;3.90;;
1479;SDS011;732;51.698;4.886;2022-11-23T16:09:45;27.03;;;13.17;;
1479;SDS011;732;51.698;4.886;2022-11-23T16:12:20;10.77;;;5.30;;
1479;SDS011;732;51.698;4.886;2022-11-23T16:14:53;6.17;;;4.97;;
1479;SDS011;732;51.698;4.886;2022-11-23T16:17:23;5.97;;;3.77;;
1479;SDS011;732;51.698;4.886;2022-11-23T16:19:53;9.37;;;4.27;;
1479;SDS011;732;51.698;4.886;2022-11-23T16:22:24;7.50;;;4.03;;
1479;SDS011;732;51.698;4.886;2022-11-23T16:24:58;5.57;;;4.33;;
1479;SDS011;732;51.698;4.886;2022-11-23T16:27:34;6.90;;;4.43;;
1479;SDS011;732;51.698;4.886;2022-11-23T16:30:03;7.93;;;4.70;;
1479;SDS011;732;51.698;4.886;2022-11-23T16:32:34;8.07;;;4.00;;